DW1114 Weather Reports


Display with metric or nautical units.
time (UTC)temp
F
wind
direction
speed
MPH
gust
MPH
rain 1hr
in
rain 24hr
in
rain mn
in
humidity
%
barometer
mb
20210617194004 84 136 3.0 7.0 0.00 0.00 0.00 1016.0
20210617193003 85 79 1.0 5.0 0.00 0.00 0.00 1016.3
20210617191003 83 113 2.0 8.0 0.00 0.00 0.00 1016.6
20210617185004 83 139 2.0 5.0 0.00 0.00 0.00 1017.0
20210617183002 82 167 1.0 5.0 0.00 0.00 0.00 1017.3
20210617181003 81 119 1.0 6.0 0.00 0.00 0.00 1017.6
20210617180004 81 122 1.0 4.0 0.00 0.00 0.00 1017.3
20210617174003 81 142 3.0 5.0 0.00 0.00 0.00 1018.0
20210617173004 81 59 4.0 8.0 0.00 0.00 0.00 1018.0
20210617171003 80 170 0.0 6.0 0.00 0.00 0.00 1018.3
20210617170004 80 140 2.0 9.0 0.00 0.00 0.00 1018.0
20210617165004 80 58 4.0 9.0 0.00 0.00 0.00 1018.3
20210617163003 79 161 2.0 9.0 0.00 0.00 0.00 1018.3
20210617162003 79 48 3.0 8.0 0.00 0.00 0.00 1018.3
20210617160003 78 62 4.0 8.0 0.00 0.00 0.00 1018.0
20210617154003 77 89 3.0 11.0 0.00 0.00 0.00 1018.0
20210617153004 77 67 4.0 8.0 0.00 0.00 0.00 1018.0
20210617152003 76 82 3.0 8.0 0.00 0.00 0.00 1018.3
20210617151003 76 128 2.0 9.0 0.00 0.00 0.00 1018.7
20210617150003 76 131 2.0 12.0 0.00 0.00 0.00 1018.0
20210617145003 76 54 4.0 8.0 0.00 0.00 0.00 1018.7
20210617140003 73 150 2.0 6.0 0.00 0.00 0.00 1017.6
20210617133003 71 156 1.0 4.0 0.00 0.00 0.00 1017.3
20210617132003 71 131 0.0 4.0 0.00 0.00 0.00 1017.3
20210617130003 69 139 1.0 2.0 0.00 0.00 0.00 1017.0
20210617125003 69 169 0.0 4.0 0.00 0.00 0.00 1017.3
20210617123004 67 163 1.0 2.0 0.00 0.00 0.00 1017.3
20210617122003 67 163 0.0 3.0 0.00 0.00 0.00 1017.3
20210617121003 67 157 0.0 1.0 0.00 0.00 0.00 1017.3
20210617120003 67 152 0.0 1.0 0.00 0.00 0.00 1017.0
20210617114003 64 158 0.0 2.0 0.00 0.00 0.00 1017.0
20210617113003 63 157 1.0 2.0 0.00 0.00 0.00 1016.6
20210617112004 61 158 0.0 0.0 0.00 0.00 0.00 1016.6
20210617110003 60 158 0.0 5.0 0.00 0.00 0.00 1017.0
20210617104003 59 158 0.0 0.0 0.00 0.00 0.00 1017.0
20210617102003 58 158 0.0 0.0 0.00 0.00 0.00 1017.0
20210617101004 57 158 0.0 0.0 0.00 0.00 0.00 1017.0
20210617100003 57 158 0.0 0.0 0.00 0.00 0.00 1016.6
20210617093003 57 158 0.0 0.0 0.00 0.00 0.00 1016.6
20210617092004 58 158 0.0 0.0 0.00 0.00 0.00 1016.6
20210617090003 58 158 0.0 0.0 0.00 0.00 0.00 1016.6
20210617085003 58 158 0.0 0.0 0.00 0.00 0.00 1016.6
20210617083003 58 158 0.0 0.0 0.00 0.00 0.00 1016.3
20210617081004 59 158 0.0 0.0 0.00 0.00 0.00 1017.0
20210617075003 59 158 0.0 0.0 0.00 0.00 0.00 1016.6
20210617073004 60 158 0.0 0.0 0.00 0.00 0.00 1016.3
20210617072003 60 158 0.0 0.0 0.00 0.00 0.00 1016.6
20210617071003 60 158 0.0 0.0 0.00 0.00 0.00 1016.6
20210617070003 60 158 0.0 0.0 0.00 0.00 0.00 1016.3
20210617062003 61 158 0.0 0.0 0.00 0.00 0.00 1016.3
20210617055003 62 158 0.0 1.0 0.00 0.00 0.00 1016.3
20210617053004 62 157 1.0 1.0 0.00 0.00 0.00 1016.6
20210617050003 62 135 0.0 0.0 0.00 0.00 0.00 1016.6
20210617044003 63 135 0.0 0.0 0.00 0.00 0.00 1017.0
20210617042004 63 135 0.0 0.0 0.00 0.00 0.00 1017.6
20210617040004 63 135 0.0 0.0 0.00 0.00 0.00 1017.3
20210617034002 64 135 0.0 4.0 0.00 0.00 0.00 1017.3
20210617032004 64 134 0.0 4.0 0.00 0.00 0.00 1017.3
20210617031003 64 135 1.0 7.0 0.00 0.00 0.00 1017.6
20210617030003 65 135 1.0 6.0 0.00 0.00 0.00 1017.6
20210617025003 65 135 0.0 7.0 0.00 0.00 0.00 1017.3
20210617024003 65 113 0.0 1.0 0.00 0.00 0.00 1017.3
20210617023004 66 113 0.0 0.0 0.00 0.00 0.00 1017.0
20210617022003 67 113 0.0 0.0 0.00 0.00 0.00 1017.0
20210617021003 67 113 0.0 0.0 0.00 0.00 0.00 1017.3
20210617020004 68 113 0.0 0.0 0.00 0.00 0.00 1017.0
20210617015002 68 113 0.0 0.0 0.00 0.00 0.00 1017.3
20210617013003 70 113 0.0 0.0 0.00 0.00 0.00 1017.0
20210617000003 77 49 3.0 6.0 0.00 0.00 0.00 1016.6
20210616234004 79 70 4.0 7.0 0.00 0.00 0.00 1017.0
20210616233004 80 108 3.0 6.0 0.00 0.00 0.00 1016.6
20210616232004 80 118 1.0 4.0 0.00 0.00 0.00 1017.0
20210616231003 81 92 1.0 6.0 0.00 0.00 0.00 1017.3
20210616230003 80 40 3.0 6.0 0.00 0.00 0.00 1017.0
20210616224003 80 167 1.0 6.0 0.00 0.00 0.00 1017.0
20210616222004 82 137 2.0 6.0 0.00 0.00 0.00 1017.6
20210616221003 83 63 2.0 5.0 0.00 0.00 0.00 1017.3
20210616215002 82 115 2.0 6.0 0.00 0.00 0.00 1017.3
20210616213003 83 59 3.0 6.0 0.00 0.00 0.00 1017.3
20210616212003 82 141 2.0 8.0 0.00 0.00 0.00 1017.6
20210616205003 81 116 3.0 12.0 0.00 0.00 0.00 1018.3
20210616203003 81 19 4.0 10.0 0.00 0.00 0.00 1018.3
20210616202003 79 342 4.0 10.0 0.00 0.00 0.00 1018.0
20210616201004 79 14 2.0 13.0 0.00 0.00 0.00 1018.3